Terminal Aerodrome Forecast
Issued by NWS Newport/Morehead City, NC

Home | Current Version | Previous Version | Text Only | Print | Product List | Glossary Off
Versions: 1 2 3 4 5 6 7 8 9 10 11 12 13 14 15 16

000
FTUS42 KMHX 061624 CCA
TAFEWN
TAF COR
KEWN 061624Z 0616/0712 21008KT P6SM VCTS SCT030 BKN040CB
      TEMPO 0616/0617 VRB15G25KT 1SM TSRA BKN025CB
     FM061700 20008KT P6SM VCTS SCT050CB
     FM070000 19004KT P6SM BKN250=

USA.gov is the U.S. government's official web portal to all federal, state and local government web resources and services.